sensor_id;sensor_type;location;lat;lon;timestamp;pressure;altitude;pressure_sealevel;temperature;humidity
47166;BME280;32930;51.112;13.762;2023-05-27T00:02:14;100482.25;;;14.32;55.76
47166;BME280;32930;51.112;13.762;2023-05-27T00:04:39;100482.19;;;14.23;56.32
47166;BME280;32930;51.112;13.762;2023-05-27T00:07:05;100481.34;;;14.25;56.61
47166;BME280;32930;51.112;13.762;2023-05-27T00:14:45;100481.19;;;13.98;56.83
47166;BME280;32930;51.112;13.762;2023-05-27T00:19:47;100478.53;;;13.90;57.82
47166;BME280;32930;51.112;13.762;2023-05-27T00:25:00;100472.47;;;13.82;57.97
47166;BME280;32930;51.112;13.762;2023-05-27T00:30:05;100473.22;;;13.67;58.53
47166;BME280;32930;51.112;13.762;2023-05-27T00:35:26;100474.84;;;13.54;58.86
47166;BME280;32930;51.112;13.762;2023-05-27T00:40:34;100466.09;;;13.35;59.60
47166;BME280;32930;51.112;13.762;2023-05-27T00:43:00;100469.59;;;13.40;59.52
47166;BME280;32930;51.112;13.762;2023-05-27T00:45:26;100476.47;;;13.40;59.59
47166;BME280;32930;51.112;13.762;2023-05-27T00:47:51;100475.53;;;13.32;60.08
47166;BME280;32930;51.112;13.762;2023-05-27T01:26:29;100465.50;;;12.77;61.84
47166;BME280;32930;51.112;13.762;2023-05-27T01:28:55;100473.16;;;12.72;62.03
47166;BME280;32930;51.112;13.762;2023-05-27T01:31:30;100464.56;;;12.67;61.97
47166;BME280;32930;51.112;13.762;2023-05-27T01:34:05;100471.44;;;12.73;62.57
47166;BME280;32930;51.112;13.762;2023-05-27T01:44:17;100459.25;;;12.55;63.03
47166;BME280;32930;51.112;13.762;2023-05-27T01:49:23;100460.00;;;12.48;62.86
47166;BME280;32930;51.112;13.762;2023-05-27T01:51:48;100460.91;;;12.50;63.48
47166;BME280;32930;51.112;13.762;2023-05-27T01:54:14;100452.25;;;12.43;63.69
47166;BME280;32930;51.112;13.762;2023-05-27T01:56:39;100453.91;;;12.40;63.64
47166;BME280;32930;51.112;13.762;2023-05-27T02:01:38;100452.09;;;12.31;63.97
47166;BME280;32930;51.112;13.762;2023-05-27T02:04:04;100451.25;;;12.34;63.94
47166;BME280;32930;51.112;13.762;2023-05-27T02:06:29;100449.47;;;12.26;64.56
47166;BME280;32930;51.112;13.762;2023-05-27T02:08:55;100458.88;;;12.24;64.77
47166;BME280;32930;51.112;13.762;2023-05-27T02:11:21;100448.63;;;12.27;64.26
47166;BME280;32930;51.112;13.762;2023-05-27T02:13:47;100452.75;;;12.16;64.26
47166;BME280;32930;51.112;13.762;2023-05-27T02:16:15;100448.47;;;12.17;65.23
47166;BME280;32930;51.112;13.762;2023-05-27T02:18:40;100455.94;;;11.98;64.85
47166;BME280;32930;51.112;13.762;2023-05-27T02:21:06;100441.38;;;11.99;65.39
47166;BME280;32930;51.112;13.762;2023-05-27T02:23:33;100445.72;;;12.01;64.84
47166;BME280;32930;51.112;13.762;2023-05-27T02:26:02;100442.19;;;11.96;64.73
47166;BME280;32930;51.112;13.762;2023-05-27T02:28:27;100440.59;;;12.04;65.29
47166;BME280;32930;51.112;13.762;2023-05-27T02:30:57;100448.28;;;12.01;65.68
47166;BME280;32930;51.112;13.762;2023-05-27T02:33:23;100447.44;;;12.04;65.34
47166;BME280;32930;51.112;13.762;2023-05-27T02:35:49;100450.69;;;11.91;65.46
47166;BME280;32930;51.112;13.762;2023-05-27T02:38:14;100456.00;;;12.03;65.30
47166;BME280;32930;51.112;13.762;2023-05-27T02:40:40;100460.06;;;11.87;65.39
47166;BME280;32930;51.112;13.762;2023-05-27T02:43:06;100454.16;;;11.93;65.61
47166;BME280;32930;51.112;13.762;2023-05-27T02:45:31;100458.31;;;11.85;66.27
47166;BME280;32930;51.112;13.762;2023-05-27T02:47:57;100454.91;;;11.86;66.40
47166;BME280;32930;51.112;13.762;2023-05-27T02:50:25;100453.13;;;11.83;65.89
47166;BME280;32930;51.112;13.762;2023-05-27T02:52:51;100454.75;;;11.76;66.16
47166;BME280;32930;51.112;13.762;2023-05-27T02:55:20;100458.13;;;11.75;66.08
47166;BME280;32930;51.112;13.762;2023-05-27T02:57:49;100461.47;;;11.68;66.52
47166;BME280;32930;51.112;13.762;2023-05-27T03:00:16;100451.25;;;11.73;65.81
47166;BME280;32930;51.112;13.762;2023-05-27T03:02:42;100459.75;;;11.67;66.29
47166;BME280;32930;51.112;13.762;2023-05-27T03:05:08;100459.69;;;11.64;66.65
47166;BME280;32930;51.112;13.762;2023-05-27T03:07:41;100455.31;;;11.60;66.92
47166;BME280;32930;51.112;13.762;2023-05-27T03:10:10;100461.19;;;11.51;66.72
47166;BME280;32930;51.112;13.762;2023-05-27T03:12:36;100462.97;;;11.55;66.56
47166;BME280;32930;51.112;13.762;2023-05-27T03:15:01;100453.59;;;11.57;66.49
47166;BME280;32930;51.112;13.762;2023-05-27T03:35:32;100458.59;;;11.50;67.56
47166;BME280;32930;51.112;13.762;2023-05-27T03:37:57;100458.78;;;11.60;67.39
47166;BME280;32930;51.112;13.762;2023-05-27T03:40:23;100465.34;;;11.43;67.62
47166;BME280;32930;51.112;13.762;2023-05-27T03:42:48;100470.75;;;11.60;67.59
47166;BME280;32930;51.112;13.762;2023-05-27T03:45:14;100468.00;;;11.48;67.77
47166;BME280;32930;51.112;13.762;2023-05-27T03:47:40;100464.75;;;11.59;67.59
47166;BME280;32930;51.112;13.762;2023-05-27T03:50:06;100464.78;;;11.63;67.73
47166;BME280;32930;51.112;13.762;2023-05-27T03:52:33;100468.22;;;11.62;67.62
47166;BME280;32930;51.112;13.762;2023-05-27T03:54:59;100470.84;;;11.66;68.12
47166;BME280;32930;51.112;13.762;2023-05-27T03:57:24;100471.88;;;11.77;67.89
47166;BME280;32930;51.112;13.762;2023-05-27T03:59:50;100471.88;;;11.76;68.49
47166;BME280;32930;51.112;13.762;2023-05-27T04:02:16;100463.31;;;11.78;68.13
47166;BME280;32930;51.112;13.762;2023-05-27T04:20:20;100473.53;;;12.30;68.30
47166;BME280;32930;51.112;13.762;2023-05-27T04:22:46;100468.41;;;12.35;68.52
47166;BME280;32930;51.112;13.762;2023-05-27T04:25:11;100466.81;;;12.43;68.48
47166;BME280;32930;51.112;13.762;2023-05-27T04:27:37;100473.66;;;12.41;69.42
47166;BME280;32930;51.112;13.762;2023-05-27T05:11:25;100489.03;;;14.14;67.08
47166;BME280;32930;51.112;13.762;2023-05-27T05:13:51;100481.38;;;14.30;66.58
47166;BME280;32930;51.112;13.762;2023-05-27T05:16:17;100479.78;;;14.52;66.30
47166;BME280;32930;51.112;13.762;2023-05-27T05:18:42;100483.25;;;14.54;66.49
47166;BME280;32930;51.112;13.762;2023-05-27T05:21:08;100485.81;;;14.58;66.27
47166;BME280;32930;51.112;13.762;2023-05-27T05:23:33;100486.69;;;14.57;65.97
47166;BME280;32930;51.112;13.762;2023-05-27T05:25:59;100491.06;;;14.75;65.42
47166;BME280;32930;51.112;13.762;2023-05-27T05:28:31;100484.25;;;15.02;65.12
47166;BME280;32930;51.112;13.762;2023-05-27T05:30:57;100492.88;;;15.10;65.23
47166;BME280;32930;51.112;13.762;2023-05-27T05:33:22;100490.31;;;15.53;63.92
47166;BME280;32930;51.112;13.762;2023-05-27T05:35:48;100486.91;;;15.77;61.76
47166;BME280;32930;51.112;13.762;2023-05-27T05:38:13;100484.22;;;16.31;60.20
47166;BME280;32930;51.112;13.762;2023-05-27T05:40:39;100488.25;;;16.98;58.26
47166;BME280;32930;51.112;13.762;2023-05-27T05:43:04;100483.06;;;17.01;56.58
47166;BME280;32930;51.112;13.762;2023-05-27T05:45:30;100492.59;;;16.92;58.74
47166;BME280;32930;51.112;13.762;2023-05-27T05:47:56;100495.88;;;17.25;56.31
47166;BME280;32930;51.112;13.762;2023-05-27T05:50:22;100494.88;;;17.40;55.21
47166;BME280;32930;51.112;13.762;2023-05-27T05:52:48;100496.25;;;17.89;53.66
47166;BME280;32930;51.112;13.762;2023-05-27T05:55:13;100488.69;;;18.47;52.22
47166;BME280;32930;51.112;13.762;2023-05-27T05:57:39;100505.66;;;18.78;52.22
47166;BME280;32930;51.112;13.762;2023-05-27T06:00:05;100498.78;;;19.34;51.53
47166;BME280;32930;51.112;13.762;2023-05-27T06:02:30;100510.13;;;19.30;50.02
47166;BME280;32930;51.112;13.762;2023-05-27T06:04:56;100513.06;;;19.65;49.06
47166;BME280;32930;51.112;13.762;2023-05-27T06:07:22;100502.44;;;19.76;47.67
47166;BME280;32930;51.112;13.762;2023-05-27T06:09:47;100514.75;;;19.68;48.09
47166;BME280;32930;51.112;13.762;2023-05-27T06:12:13;100501.81;;;20.13;47.26
47166;BME280;32930;51.112;13.762;2023-05-27T06:14:39;100500.72;;;20.25;46.63
47166;BME280;32930;51.112;13.762;2023-05-27T06:17:04;100500.50;;;19.89;45.29
47166;BME280;32930;51.112;13.762;2023-05-27T06:19:30;100503.81;;;19.99;45.13
47166;BME280;32930;51.112;13.762;2023-05-27T06:21:56;100505.09;;;20.68;45.88
47166;BME280;32930;51.112;13.762;2023-05-27T06:24:21;100499.94;;;20.65;44.41
47166;BME280;32930;51.112;13.762;2023-05-27T06:26:47;100505.38;;;20.07;45.30
47166;BME280;32930;51.112;13.762;2023-05-27T06:29:21;100499.53;;;20.41;45.70
47166;BME280;32930;51.112;13.762;2023-05-27T06:31:46;100506.59;;;20.34;44.00
47166;BME280;32930;51.112;13.762;2023-05-27T06:34:14;100499.47;;;20.44;45.66
47166;BME280;32930;51.112;13.762;2023-05-27T06:36:40;100504.28;;;20.66;46.00
47166;BME280;32930;51.112;13.762;2023-05-27T06:39:06;100496.47;;;20.64;45.61
47166;BME280;32930;51.112;13.762;2023-05-27T06:41:32;100509.66;;;20.11;45.35
47166;BME280;32930;51.112;13.762;2023-05-27T06:43:57;100504.91;;;19.31;47.02
47166;BME280;32930;51.112;13.762;2023-05-27T06:46:23;100506.38;;;18.89;48.12
47166;BME280;32930;51.112;13.762;2023-05-27T06:48:48;100505.69;;;18.71;48.73
47166;BME280;32930;51.112;13.762;2023-05-27T06:51:14;100502.84;;;18.91;48.34
47166;BME280;32930;51.112;13.762;2023-05-27T06:53:40;100507.81;;;19.11;47.95
47166;BME280;32930;51.112;13.762;2023-05-27T06:56:06;100506.63;;;19.31;47.87
47166;BME280;32930;51.112;13.762;2023-05-27T06:58:31;100502.25;;;18.71;49.79
47166;BME280;32930;51.112;13.762;2023-05-27T07:00:57;100497.47;;;19.05;48.99
47166;BME280;32930;51.112;13.762;2023-05-27T07:03:22;100497.66;;;18.91;48.72
47166;BME280;32930;51.112;13.762;2023-05-27T07:05:48;100498.66;;;18.83;48.12
47166;BME280;32930;51.112;13.762;2023-05-27T07:08:13;100497.47;;;18.36;49.43
47166;BME280;32930;51.112;13.762;2023-05-27T07:10:40;100491.78;;;18.01;50.53
47166;BME280;32930;51.112;13.762;2023-05-27T07:13:05;100492.63;;;18.03;50.45
47166;BME280;32930;51.112;13.762;2023-05-27T07:15:31;100496.34;;;17.73;51.16
47166;BME280;32930;51.112;13.762;2023-05-27T07:17:56;100494.72;;;17.58;50.41
47166;BME280;32930;51.112;13.762;2023-05-27T07:20:23;100492.34;;;17.32;51.05
47166;BME280;32930;51.112;13.762;2023-05-27T07:22:48;100492.81;;;17.83;51.65
47166;BME280;32930;51.112;13.762;2023-05-27T07:25:14;100487.53;;;17.94;51.67
47166;BME280;32930;51.112;13.762;2023-05-27T07:27:40;100482.41;;;17.88;51.77
47166;BME280;32930;51.112;13.762;2023-05-27T07:30:06;100491.06;;;17.84;51.09
47166;BME280;32930;51.112;13.762;2023-05-27T07:32:33;100488.28;;;18.07;51.90
47166;BME280;32930;51.112;13.762;2023-05-27T07:34:58;100485.88;;;17.86;51.44
47166;BME280;32930;51.112;13.762;2023-05-27T07:37:26;100487.78;;;17.64;51.39
47166;BME280;32930;51.112;13.762;2023-05-27T07:39:52;100487.59;;;17.88;51.20
47166;BME280;32930;51.112;13.762;2023-05-27T07:42:17;100487.69;;;17.73;50.86
47166;BME280;32930;51.112;13.762;2023-05-27T07:44:43;100485.31;;;17.50;51.61
47166;BME280;32930;51.112;13.762;2023-05-27T07:47:08;100483.53;;;17.52;50.83
47166;BME280;32930;51.112;13.762;2023-05-27T07:49:34;100488.84;;;17.36;51.89
47166;BME280;32930;51.112;13.762;2023-05-27T07:51:59;100483.47;;;17.63;51.72
47166;BME280;32930;51.112;13.762;2023-05-27T07:54:25;100474.69;;;17.77;51.87
47166;BME280;32930;51.112;13.762;2023-05-27T07:56:52;100481.94;;;17.35;51.32
47166;BME280;32930;51.112;13.762;2023-05-27T07:59:18;100485.97;;;17.75;52.57
47166;BME280;32930;51.112;13.762;2023-05-27T08:01:43;100476.44;;;17.78;50.94
47166;BME280;32930;51.112;13.762;2023-05-27T08:04:09;100470.34;;;17.76;51.20
47166;BME280;32930;51.112;13.762;2023-05-27T08:06:36;100478.06;;;17.87;51.29
47166;BME280;32930;51.112;13.762;2023-05-27T08:09:02;100466.50;;;18.16;51.85
47166;BME280;32930;51.112;13.762;2023-05-27T08:11:29;100476.13;;;18.06;50.23
47166;BME280;32930;51.112;13.762;2023-05-27T08:13:54;100471.69;;;18.19;49.80
47166;BME280;32930;51.112;13.762;2023-05-27T08:16:20;100472.09;;;17.74;48.93
47166;BME280;32930;51.112;13.762;2023-05-27T08:18:45;100462.47;;;17.90;48.78
47166;BME280;32930;51.112;13.762;2023-05-27T08:21:11;100457.19;;;18.01;48.30
47166;BME280;32930;51.112;13.762;2023-05-27T08:23:36;100452.34;;;18.43;48.45
47166;BME280;32930;51.112;13.762;2023-05-27T08:26:02;100449.88;;;18.35;48.27
47166;BME280;32930;51.112;13.762;2023-05-27T08:28:27;100453.06;;;17.80;48.60
47166;BME280;32930;51.112;13.762;2023-05-27T08:30:53;100451.97;;;18.01;48.37
47166;BME280;32930;51.112;13.762;2023-05-27T08:33:21;100443.13;;;18.17;49.26
47166;BME280;32930;51.112;13.762;2023-05-27T08:35:48;100444.44;;;18.52;48.43
47166;BME280;32930;51.112;13.762;2023-05-27T08:38:14;100442.22;;;18.23;48.41
47166;BME280;32930;51.112;13.762;2023-05-27T08:40:39;100456.69;;;18.41;47.22
47166;BME280;32930;51.112;13.762;2023-05-27T08:43:06;100449.25;;;18.13;47.71
47166;BME280;32930;51.112;13.762;2023-05-27T08:45:31;100448.53;;;18.73;48.82
47166;BME280;32930;51.112;13.762;2023-05-27T08:47:59;100446.06;;;18.59;47.02
47166;BME280;32930;51.112;13.762;2023-05-27T08:50:27;100446.72;;;18.78;47.37
47166;BME280;32930;51.112;13.762;2023-05-27T08:52:54;100443.94;;;18.90;46.64
47166;BME280;32930;51.112;13.762;2023-05-27T08:55:21;100429.81;;;18.45;46.90
47166;BME280;32930;51.112;13.762;2023-05-27T08:57:55;100433.50;;;18.95;47.92
47166;BME280;32930;51.112;13.762;2023-05-27T09:00:21;100428.69;;;19.25;46.40
47166;BME280;32930;51.112;13.762;2023-05-27T09:03:06;100425.91;;;18.78;45.87
47166;BME280;32930;51.112;13.762;2023-05-27T09:05:32;100431.84;;;18.88;45.56
47166;BME280;32930;51.112;13.762;2023-05-27T09:07:57;100408.97;;;19.10;45.88
47166;BME280;32930;51.112;13.762;2023-05-27T09:10:23;100414.16;;;19.10;43.79
47166;BME280;32930;51.112;13.762;2023-05-27T09:12:50;100418.69;;;18.98;44.92
47166;BME280;32930;51.112;13.762;2023-05-27T09:15:16;100413.31;;;19.11;44.89
47166;BME280;32930;51.112;13.762;2023-05-27T09:17:44;100399.16;;;19.26;44.72
47166;BME280;32930;51.112;13.762;2023-05-27T09:20:13;100397.06;;;19.49;44.46
47166;BME280;32930;51.112;13.762;2023-05-27T09:22:39;100393.91;;;19.29;44.99
47166;BME280;32930;51.112;13.762;2023-05-27T09:25:07;100401.91;;;19.71;45.54
47166;BME280;32930;51.112;13.762;2023-05-27T09:27:32;100401.91;;;19.69;47.26
47166;BME280;32930;51.112;13.762;2023-05-27T09:30:06;100396.38;;;19.86;46.14
47166;BME280;32930;51.112;13.762;2023-05-27T09:32:33;100400.44;;;20.01;46.36
47166;BME280;32930;51.112;13.762;2023-05-27T09:35:00;100399.69;;;19.96;46.03
47166;BME280;32930;51.112;13.762;2023-05-27T09:37:27;100397.94;;;19.96;46.25
47166;BME280;32930;51.112;13.762;2023-05-27T09:39:58;100400.19;;;20.14;46.53
47166;BME280;32930;51.112;13.762;2023-05-27T09:42:24;100397.47;;;20.19;45.99
47166;BME280;32930;51.112;13.762;2023-05-27T09:44:50;100384.19;;;20.30;46.50
47166;BME280;32930;51.112;13.762;2023-05-27T09:47:20;100388.66;;;20.67;45.80
47166;BME280;32930;51.112;13.762;2023-05-27T09:49:52;100386.53;;;20.84;43.34
47166;BME280;32930;51.112;13.762;2023-05-27T09:52:24;100384.16;;;20.73;42.86
47166;BME280;32930;51.112;13.762;2023-05-27T10:07:45;100353.59;;;20.40;41.71
47166;BME280;32930;51.112;13.762;2023-05-27T10:10:19;100359.25;;;20.60;42.05
47166;BME280;32930;51.112;13.762;2023-05-27T10:12:50;100352.13;;;20.68;40.87
47166;BME280;32930;51.112;13.762;2023-05-27T10:15:24;100353.75;;;20.72;41.96
47166;BME280;32930;51.112;13.762;2023-05-27T10:18:01;100344.09;;;21.12;43.03
47166;BME280;32930;51.112;13.762;2023-05-27T10:20:35;100347.38;;;21.20;42.08
47166;BME280;32930;51.112;13.762;2023-05-27T10:23:29;100351.78;;;21.52;42.00
47166;BME280;32930;51.112;13.762;2023-05-27T10:26:08;100351.75;;;21.18;41.48
47166;BME280;32930;51.112;13.762;2023-05-27T10:28:35;100346.78;;;21.43;41.23
47166;BME280;32930;51.112;13.762;2023-05-27T10:33:35;100347.22;;;21.91;40.50
47166;BME280;32930;51.112;13.762;2023-05-27T10:36:11;100343.19;;;21.80;42.28
47166;BME280;32930;51.112;13.762;2023-05-27T10:38:37;100338.78;;;21.50;40.31
47166;BME280;32930;51.112;13.762;2023-05-27T10:41:05;100338.97;;;21.74;40.30
47166;BME280;32930;51.112;13.762;2023-05-27T10:43:32;100339.75;;;21.78;39.51
47166;BME280;32930;51.112;13.762;2023-05-27T10:46:03;100334.25;;;21.56;39.47
47166;BME280;32930;51.112;13.762;2023-05-27T10:48:31;100338.59;;;21.57;39.45
47166;BME280;32930;51.112;13.762;2023-05-27T10:50:57;100336.44;;;21.71;38.56
47166;BME280;32930;51.112;13.762;2023-05-27T10:53:26;100333.06;;;21.36;38.88
47166;BME280;32930;51.112;13.762;2023-05-27T10:55:53;100337.19;;;21.45;39.55
47166;BME280;32930;51.112;13.762;2023-05-27T10:58:20;100330.53;;;21.66;39.61
47166;BME280;32930;51.112;13.762;2023-05-27T11:00:52;100326.06;;;21.37;39.44
47166;BME280;32930;51.112;13.762;2023-05-27T11:03:25;100326.00;;;21.71;39.33
47166;BME280;32930;51.112;13.762;2023-05-27T11:06:03;100322.06;;;21.87;39.33
47166;BME280;32930;51.112;13.762;2023-05-27T11:08:32;100329.34;;;22.06;38.81
47166;BME280;32930;51.112;13.762;2023-05-27T11:11:02;100321.06;;;22.23;39.62
47166;BME280;32930;51.112;13.762;2023-05-27T11:13:43;100316.78;;;22.20;40.82
47166;BME280;32930;51.112;13.762;2023-05-27T11:21:29;100310.84;;;22.43;39.27
47166;BME280;32930;51.112;13.762;2023-05-27T11:23:55;100295.13;;;22.16;39.35
47166;BME280;32930;51.112;13.762;2023-05-27T11:26:25;100296.44;;;22.30;41.05
47166;BME280;32930;51.112;13.762;2023-05-27T11:28:56;100285.41;;;22.48;39.93
47166;BME280;32930;51.112;13.762;2023-05-27T11:31:28;100290.06;;;22.38;37.85
47166;BME280;32930;51.112;13.762;2023-05-27T11:33:54;100295.69;;;22.26;39.31
47166;BME280;32930;51.112;13.762;2023-05-27T11:36:20;100292.19;;;22.26;38.45
47166;BME280;32930;51.112;13.762;2023-05-27T11:46:39;100275.63;;;21.67;37.94
47166;BME280;32930;51.112;13.762;2023-05-27T11:49:10;100270.22;;;21.73;37.99
47166;BME280;32930;51.112;13.762;2023-05-27T11:51:44;100269.63;;;21.93;39.86
47166;BME280;32930;51.112;13.762;2023-05-27T11:56:44;100261.41;;;22.06;39.15
47166;BME280;32930;51.112;13.762;2023-05-27T12:02:03;100251.94;;;21.44;39.06
47166;BME280;32930;51.112;13.762;2023-05-27T12:07:12;100250.28;;;21.40;39.31
47166;BME280;32930;51.112;13.762;2023-05-27T12:09:42;100251.03;;;21.45;39.92
47166;BME280;32930;51.112;13.762;2023-05-27T12:12:08;100233.59;;;20.80;39.23
47166;BME280;32930;51.112;13.762;2023-05-27T12:14:33;100238.91;;;20.77;39.01
47166;BME280;32930;51.112;13.762;2023-05-27T12:16:59;100238.84;;;21.13;39.21
47166;BME280;32930;51.112;13.762;2023-05-27T12:19:25;100245.16;;;21.04;39.21
47166;BME280;32930;51.112;13.762;2023-05-27T12:21:54;100235.56;;;21.37;39.71
47166;BME280;32930;51.112;13.762;2023-05-27T12:24:29;100235.00;;;21.26;39.20
47166;BME280;32930;51.112;13.762;2023-05-27T12:27:04;100228.75;;;21.32;39.79
47166;BME280;32930;51.112;13.762;2023-05-27T12:29:30;100221.72;;;21.34;39.79
47166;BME280;32930;51.112;13.762;2023-05-27T12:31:55;100224.31;;;21.35;38.79
47166;BME280;32930;51.112;13.762;2023-05-27T12:34:22;100220.13;;;20.97;38.51
47166;BME280;32930;51.112;13.762;2023-05-27T12:36:47;100213.72;;;21.09;38.89
47166;BME280;32930;51.112;13.762;2023-05-27T12:39:13;100215.72;;;20.66;38.43
47166;BME280;32930;51.112;13.762;2023-05-27T12:41:41;100214.72;;;20.72;38.93
47166;BME280;32930;51.112;13.762;2023-05-27T12:44:09;100214.47;;;20.81;38.10
47166;BME280;32930;51.112;13.762;2023-05-27T12:46:35;100219.38;;;20.93;38.94
47166;BME280;32930;51.112;13.762;2023-05-27T12:49:00;100209.09;;;20.87;38.31
47166;BME280;32930;51.112;13.762;2023-05-27T12:51:26;100214.84;;;21.00;39.08
47166;BME280;32930;51.112;13.762;2023-05-27T12:56:41;100202.22;;;21.16;40.21
47166;BME280;32930;51.112;13.762;2023-05-27T13:01:44;100189.63;;;20.66;39.61
47166;BME280;32930;51.112;13.762;2023-05-27T13:04:18;100187.25;;;20.91;38.90
47166;BME280;32930;51.112;13.762;2023-05-27T13:09:16;100188.00;;;20.95;38.02
47166;BME280;32930;51.112;13.762;2023-05-27T13:11:44;100164.56;;;20.62;38.12
47166;BME280;32930;51.112;13.762;2023-05-27T13:14:12;100185.34;;;20.96;39.94
47166;BME280;32930;51.112;13.762;2023-05-27T13:16:37;100189.69;;;20.97;38.19
47166;BME280;32930;51.112;13.762;2023-05-27T13:19:03;100185.34;;;20.96;38.12
47166;BME280;32930;51.112;13.762;2023-05-27T13:21:29;100188.22;;;20.87;37.91
47166;BME280;32930;51.112;13.762;2023-05-27T13:23:54;100176.00;;;20.55;37.40
47166;BME280;32930;51.112;13.762;2023-05-27T13:26:20;100179.22;;;20.65;39.11
47166;BME280;32930;51.112;13.762;2023-05-27T13:28:47;100166.47;;;20.55;38.68
47166;BME280;32930;51.112;13.762;2023-05-27T13:31:13;100174.69;;;20.73;38.41
47166;BME280;32930;51.112;13.762;2023-05-27T13:33:40;100168.75;;;20.32;37.44
47166;BME280;32930;51.112;13.762;2023-05-27T13:36:06;100166.19;;;20.65;38.78
47166;BME280;32930;51.112;13.762;2023-05-27T13:38:32;100170.25;;;20.76;39.46
47166;BME280;32930;51.112;13.762;2023-05-27T13:40:58;100164.19;;;20.76;38.93
47166;BME280;32930;51.112;13.762;2023-05-27T13:43:25;100154.56;;;20.78;38.43
47166;BME280;32930;51.112;13.762;2023-05-27T13:45:50;100160.38;;;20.88;39.44
47166;BME280;32930;51.112;13.762;2023-05-27T13:48:16;100169.16;;;20.51;39.17
47166;BME280;32930;51.112;13.762;2023-05-27T13:50:42;100150.63;;;20.62;39.25
47166;BME280;32930;51.112;13.762;2023-05-27T13:53:08;100149.69;;;20.66;39.18
47166;BME280;32930;51.112;13.762;2023-05-27T13:55:33;100144.75;;;20.88;39.69
47166;BME280;32930;51.112;13.762;2023-05-27T13:57:59;100150.50;;;20.99;39.01
47166;BME280;32930;51.112;13.762;2023-05-27T14:00:24;100146.41;;;20.90;38.10
47166;BME280;32930;51.112;13.762;2023-05-27T14:02:50;100136.41;;;20.75;40.02
47166;BME280;32930;51.112;13.762;2023-05-27T14:05:17;100138.44;;;20.64;38.79
47166;BME280;32930;51.112;13.762;2023-05-27T14:07:43;100130.34;;;20.73;38.74
47166;BME280;32930;51.112;13.762;2023-05-27T14:56:23;100095.38;;;20.47;38.49
47166;BME280;32930;51.112;13.762;2023-05-27T14:58:49;100100.41;;;20.21;37.99
47166;BME280;32930;51.112;13.762;2023-05-27T15:01:18;100098.09;;;20.43;38.60
47166;BME280;32930;51.112;13.762;2023-05-27T15:03:46;100088.72;;;20.37;37.47
47166;BME280;32930;51.112;13.762;2023-05-27T15:06:12;100086.72;;;20.47;38.45
47166;BME280;32930;51.112;13.762;2023-05-27T15:08:38;100085.78;;;20.49;38.01
47166;BME280;32930;51.112;13.762;2023-05-27T15:11:04;100078.59;;;20.25;37.59
47166;BME280;32930;51.112;13.762;2023-05-27T15:13:30;100074.09;;;20.31;37.39
47166;BME280;32930;51.112;13.762;2023-05-27T15:15:55;100071.75;;;20.21;38.48
47166;BME280;32930;51.112;13.762;2023-05-27T15:21:00;100072.56;;;20.23;38.36
47166;BME280;32930;51.112;13.762;2023-05-27T15:23:31;100066.13;;;20.36;38.54
47166;BME280;32930;51.112;13.762;2023-05-27T15:25:56;100063.34;;;20.44;38.61
47166;BME280;32930;51.112;13.762;2023-05-27T15:28:22;100082.66;;;20.36;38.10
47166;BME280;32930;51.112;13.762;2023-05-27T15:30:47;100069.41;;;20.44;38.87
47166;BME280;32930;51.112;13.762;2023-05-27T15:33:13;100062.59;;;20.38;37.98
47166;BME280;32930;51.112;13.762;2023-05-27T15:35:39;100060.66;;;20.47;38.11
47166;BME280;32930;51.112;13.762;2023-05-27T15:38:05;100065.94;;;20.44;39.97
47166;BME280;32930;51.112;13.762;2023-05-27T15:40:31;100052.16;;;20.40;38.66
47166;BME280;32930;51.112;13.762;2023-05-27T15:42:57;100047.03;;;20.37;38.43
47166;BME280;32930;51.112;13.762;2023-05-27T15:45:22;100050.25;;;20.45;37.95
47166;BME280;32930;51.112;13.762;2023-05-27T15:47:49;100043.50;;;20.38;38.10
47166;BME280;32930;51.112;13.762;2023-05-27T15:50:19;100047.69;;;20.44;38.92
47166;BME280;32930;51.112;13.762;2023-05-27T15:52:44;100050.03;;;20.54;38.58
47166;BME280;32930;51.112;13.762;2023-05-27T15:55:10;100042.56;;;20.41;37.79
47166;BME280;32930;51.112;13.762;2023-05-27T15:57:36;100038.75;;;20.54;38.15
47166;BME280;32930;51.112;13.762;2023-05-27T16:00:01;100042.59;;;20.39;37.45
47166;BME280;32930;51.112;13.762;2023-05-27T16:02:27;100039.38;;;20.29;37.12
47166;BME280;32930;51.112;13.762;2023-05-27T16:04:56;100034.75;;;20.41;37.51
47166;BME280;32930;51.112;13.762;2023-05-27T16:07:22;100037.47;;;20.36;37.16
47166;BME280;32930;51.112;13.762;2023-05-27T16:09:47;100036.00;;;20.26;36.73
47166;BME280;32930;51.112;13.762;2023-05-27T16:12:13;100030.47;;;20.38;36.28
47166;BME280;32930;51.112;13.762;2023-05-27T16:14:39;100022.66;;;20.38;36.39
47166;BME280;32930;51.112;13.762;2023-05-27T16:17:05;100021.91;;;20.34;37.25
47166;BME280;32930;51.112;13.762;2023-05-27T16:19:31;100021.13;;;20.31;37.43
47166;BME280;32930;51.112;13.762;2023-05-27T16:21:57;100018.34;;;20.37;37.93
47166;BME280;32930;51.112;13.762;2023-05-27T16:24:22;100013.16;;;20.35;37.94
47166;BME280;32930;51.112;13.762;2023-05-27T16:26:48;100013.22;;;20.34;38.79
47166;BME280;32930;51.112;13.762;2023-05-27T16:29:17;100009.78;;;20.32;38.51
47166;BME280;32930;51.112;13.762;2023-05-27T16:31:50;100006.44;;;20.28;37.44
47166;BME280;32930;51.112;13.762;2023-05-27T16:34:15;100001.91;;;20.35;37.75
47166;BME280;32930;51.112;13.762;2023-05-27T16:36:41;100008.00;;;20.34;39.36